Time;durP1;ratioP1;P1;durP2;ratioP2;P2;SDS_P1;SDS_P2;PMS_P1;PMS_P2;Temp;Humidity;BMP_temperature;BMP_pressure;BME280_temperature;BME280_humidity;BME280_pressure;Samples;Min_cycle;Max_cycle;Signal;HPM_P1;HPM_P2
2021/05/10 00:00:57;;;;;;;9.70;6.62;;;;;;;8.93;64.50;97987.04;1868662;76;37905;-73
2021/05/10 00:03:33;;;;;;;7.60;5.40;;;;;;;9.03;64.14;97985.69;1830428;76;27867;-72
2021/05/10 00:06:09;;;;;;;8.08;5.65;;;;;;;9.00;64.03;97975.42;1836505;77;27892;-72
2021/05/10 00:08:47;;;;;;;8.48;4.80;;;;;;;8.96;64.19;97980.55;1868649;75;27562;-72
2021/05/10 00:11:25;;;;;;;8.43;4.45;;;;;;;8.91;64.87;97971.64;1843981;76;23169;-72
2021/05/10 00:14:01;;;;;;;7.47;4.20;;;;;;;8.73;64.79;97976.49;1848151;76;22108;-72
2021/05/10 00:16:37;;;;;;;6.40;3.72;;;;;;;8.58;65.54;97979.70;1841255;76;22390;-72
2021/05/10 00:19:13;;;;;;;10.35;6.47;;;;;;;8.41;65.41;97969.14;1873975;76;27626;-72
2021/05/10 00:21:50;;;;;;;14.23;8.45;;;;;;;8.48;65.75;97987.25;1859044;76;27859;-72
2021/05/10 00:24:26;;;;;;;13.68;8.83;;;;;;;8.58;65.69;97983.76;1836527;77;27734;-72
2021/05/10 00:27:04;;;;;;;14.15;8.15;;;;;;;8.65;66.02;97983.77;1835241;76;22382;-72
2021/05/10 00:29:41;;;;;;;9.50;5.35;;;;;;;8.58;65.28;97982.41;1847433;76;22345;-72
2021/05/10 00:32:17;;;;;;;8.30;6.40;;;;;;;8.52;65.58;97980.23;1836516;77;27837;-72
2021/05/10 00:34:54;;;;;;;8.40;5.10;;;;;;;8.55;65.66;97977.55;1847432;76;22393;-72
2021/05/10 00:37:30;;;;;;;10.40;6.65;;;;;;;8.34;65.59;97964.50;1854769;76;27699;-73
2021/05/10 00:40:09;;;;;;;12.40;7.15;;;;;;;8.42;66.53;97972.11;1868689;76;27595;-72
2021/05/10 00:42:46;;;;;;;8.38;5.40;;;;;;;8.50;65.74;97978.34;1825244;76;22330;-72
2021/05/10 00:45:23;;;;;;;9.03;6.08;;;;;;;8.29;66.79;97973.41;1836504;77;27807;-72
2021/05/10 00:47:58;;;;;;;9.18;5.78;;;;;;;8.33;66.11;97969.09;1864201;76;22924;-73
2021/05/10 00:50:35;;;;;;;7.83;5.00;;;;;;;8.23;66.37;97973.66;1852412;77;22042;-72
2021/05/10 00:53:11;;;;;;;9.23;5.62;;;;;;;8.09;66.71;97969.28;1839882;76;28270;-72
2021/05/10 00:55:47;;;;;;;12.15;6.80;;;;;;;8.25;66.79;97975.55;1835069;77;27721;-72
2021/05/10 00:58:23;;;;;;;10.05;6.55;;;;;;;8.23;66.81;97967.72;1836962;76;27740;-72
2021/05/10 01:01:00;;;;;;;10.30;6.65;;;;;;;8.28;66.24;97969.06;1835121;77;28311;-72
2021/05/10 01:03:36;;;;;;;10.70;6.87;;;;;;;8.33;66.25;97960.18;1837716;77;27716;-72
2021/05/10 01:06:13;;;;;;;11.80;7.47;;;;;;;8.34;66.47;97977.45;1876439;75;22908;-72
2021/05/10 01:08:49;;;;;;;9.28;6.25;;;;;;;8.13;67.54;97963.09;1836435;77;28297;-72
2021/05/10 01:11:24;;;;;;;11.48;5.92;;;;;;;8.20;66.98;97966.87;1848091;77;22288;-72
2021/05/10 01:14:01;;;;;;;9.50;5.33;;;;;;;8.02;67.12;97973.56;1847465;76;22696;-72
2021/05/10 01:16:37;;;;;;;8.48;5.28;;;;;;;7.90;67.27;97973.80;1862086;76;27652;-72
2021/05/10 01:19:14;;;;;;;8.60;5.60;;;;;;;8.02;66.80;97972.21;1873938;76;27581;-72
2021/05/10 01:22:11;;;;;;;8.30;5.25;;;;;;;7.93;67.54;97968.41;1809951;78;22589;-73
2021/05/10 01:24:46;;;;;;;7.97;5.55;;;;;;;7.68;68.98;97966.93;1848114;76;22394;-73
2021/05/10 01:27:22;;;;;;;10.60;6.40;;;;;;;7.45;69.27;97958.73;1851479;76;27644;-72
2021/05/10 01:29:59;;;;;;;10.20;5.33;;;;;;;7.57;67.48;97966.88;1852395;77;22340;-72
2021/05/10 01:32:35;;;;;;;10.90;7.10;;;;;;;7.43;68.50;97964.91;1848325;76;27649;-72
2021/05/10 01:35:11;;;;;;;9.68;6.58;;;;;;;7.55;68.65;97968.23;1848135;76;22565;-72
2021/05/10 01:37:47;;;;;;;8.35;5.28;;;;;;;7.40;68.90;97963.55;1825296;76;22341;-72
2021/05/10 01:40:24;;;;;;;8.43;5.35;;;;;;;7.28;67.90;97954.32;1884841;76;22046;-72
2021/05/10 01:43:00;;;;;;;17.82;10.90;;;;;;;7.10;68.60;97955.28;1847609;76;27655;-72
2021/05/10 01:45:36;;;;;;;9.43;6.40;;;;;;;7.24;69.27;97965.33;1848165;76;22390;-72
2021/05/10 01:48:13;;;;;;;7.62;4.90;;;;;;;7.14;68.71;97963.11;1884143;76;22477;-72
2021/05/10 01:50:49;;;;;;;8.75;4.97;;;;;;;7.02;70.00;97963.30;1890183;76;22252;-72
2021/05/10 01:53:25;;;;;;;8.55;5.40;;;;;;;6.92;70.37;97960.50;1836506;76;27649;-72
2021/05/10 01:56:03;;;;;;;10.68;6.08;;;;;;;7.02;69.21;97968.16;1847481;76;22427;-73
2021/05/10 01:58:40;;;;;;;11.93;7.25;;;;;;;6.90;71.29;97964.80;1847352;76;22305;-72
2021/05/10 02:01:16;;;;;;;11.88;8.18;;;;;;;6.88;69.43;97965.60;1872354;76;27577;-72
2021/05/10 02:03:52;;;;;;;12.88;7.53;;;;;;;7.05;69.49;97959.55;1873965;75;27745;-73
2021/05/10 02:06:29;;;;;;;10.08;5.65;;;;;;;7.23;69.59;97964.25;1880112;76;21962;-72
2021/05/10 02:09:07;;;;;;;8.43;5.25;;;;;;;7.07;69.21;97968.70;1890239;76;22385;-72
2021/05/10 02:11:45;;;;;;;9.03;4.83;;;;;;;7.05;70.09;97960.08;1839607;76;22433;-72
2021/05/10 02:14:21;;;;;;;10.95;6.58;;;;;;;7.01;69.85;97962.48;1847652;76;22828;-72
2021/05/10 02:16:57;;;;;;;10.72;7.00;;;;;;;7.01;70.70;97964.38;1857316;76;27651;-72
2021/05/10 02:19:34;;;;;;;9.78;5.25;;;;;;;7.11;69.64;97963.63;1835113;77;27829;-72
2021/05/10 02:22:14;;;;;;;8.18;4.47;;;;;;;7.07;69.26;97964.13;1833124;76;22635;-72
2021/05/10 02:24:50;;;;;;;6.75;4.53;;;;;;;6.87;68.95;97960.48;1847491;76;22477;-72
2021/05/10 02:27:28;;;;;;;14.73;6.45;;;;;;;6.71;69.92;97959.53;1871442;76;23110;-72
2021/05/10 02:30:06;;;;;;;6.12;5.00;;;;;;;6.60;71.77;97955.12;1890193;76;22315;-72
2021/05/10 02:32:43;;;;;;;7.92;4.42;;;;;;;6.56;69.78;97958.84;1826323;76;22660;-72
2021/05/10 02:35:20;;;;;;;6.58;4.70;;;;;;;6.50;71.28;97957.20;1873947;76;27690;-72
2021/05/10 02:37:56;;;;;;;6.95;4.70;;;;;;;6.60;70.57;97957.29;1823157;76;22431;-72
2021/05/10 02:40:33;;;;;;;10.05;6.37;;;;;;;6.54;70.76;97952.91;1852387;77;22082;-72
2021/05/10 02:43:11;;;;;;;9.45;5.40;;;;;;;6.50;70.48;97951.28;1819608;76;22352;-72
2021/05/10 02:45:47;;;;;;;8.30;5.95;;;;;;;6.47;71.94;97955.00;1868629;76;28132;-72
2021/05/10 02:48:22;;;;;;;8.48;5.67;;;;;;;6.59;70.60;97965.63;1858454;76;22509;-72
2021/05/10 02:50:59;;;;;;;10.40;5.05;;;;;;;6.54;70.76;97964.22;1890202;76;22090;-72
2021/05/10 02:53:34;;;;;;;9.63;5.17;;;;;;;6.43;70.98;97960.09;1843255;76;22286;-72
2021/05/10 02:56:10;;;;;;;10.80;7.62;;;;;;;6.32;70.83;97966.95;1868377;76;27634;-72
2021/05/10 02:58:48;;;;;;;10.35;5.92;;;;;;;6.35;70.30;97964.58;1873965;76;28089;-72
2021/05/10 03:01:24;;;;;;;7.78;4.58;;;;;;;6.50;70.78;97955.31;1844262;76;22454;-72
2021/05/10 03:04:00;;;;;;;11.35;7.50;;;;;;;6.42;72.01;97968.42;1868604;76;27585;-72
2021/05/10 03:06:37;;;;;;;8.93;5.50;;;;;;;6.61;71.20;97956.22;1841111;75;22610;-72
2021/05/10 03:09:12;;;;;;;11.38;4.78;;;;;;;6.42;71.47;97953.62;1848092;76;22582;-72
2021/05/10 03:11:47;;;;;;;7.53;5.47;;;;;;;6.28;71.65;97959.11;1839597;76;22638;-72
2021/05/10 03:14:23;;;;;;;8.58;4.85;;;;;;;6.25;70.37;97960.98;1890239;76;22487;-72
2021/05/10 03:17:00;;;;;;;12.25;6.28;;;;;;;6.13;71.49;97956.53;1856738;76;27710;-72
2021/05/10 03:19:34;;;;;;;8.43;4.50;;;;;;;6.24;71.19;97956.13;1890197;76;22304;-72
2021/05/10 03:22:11;;;;;;;8.58;5.12;;;;;;;6.13;71.09;97951.15;1854131;76;38110;-72
2021/05/10 03:24:47;;;;;;;16.05;6.30;;;;;;;6.36;71.33;97963.51;1868594;76;27562;-73
2021/05/10 03:27:22;;;;;;;9.30;4.95;;;;;;;6.49;70.80;97966.31;1831582;76;22335;-72
2021/05/10 03:29:58;;;;;;;7.80;4.85;;;;;;;6.37;70.81;97965.13;1868646;76;27668;-73
2021/05/10 03:32:35;;;;;;;6.83;4.30;;;;;;;6.45;71.20;97966.02;1827697;76;22408;-72
2021/05/10 03:35:13;;;;;;;9.25;5.60;;;;;;;6.36;70.55;97970.23;1868592;76;37969;-72
2021/05/10 03:37:49;;;;;;;9.25;4.40;;;;;;;6.55;70.34;97968.00;1851879;75;22408;-73
2021/05/10 03:40:25;;;;;;;14.60;6.35;;;;;;;6.52;70.54;97960.44;1835123;77;28312;-72
2021/05/10 03:43:02;;;;;;;15.13;8.43;;;;;;;6.84;70.54;97969.08;1863259;76;22186;-73
2021/05/10 03:45:38;;;;;;;31.37;11.38;;;;;;;6.87;70.04;97960.48;1868619;76;27596;-73
2021/05/10 03:48:14;;;;;;;14.65;8.50;;;;;;;7.15;69.77;97970.92;1839151;76;27709;-72
2021/05/10 03:50:50;;;;;;;10.95;5.87;;;;;;;7.34;69.18;97964.04;1868667;76;27666;-73
2021/05/10 03:53:28;;;;;;;11.43;7.37;;;;;;;7.51;68.22;97977.36;1815731;76;22472;-73
2021/05/10 03:56:05;;;;;;;17.25;7.45;;;;;;;7.47;68.25;97970.88;1873926;76;27673;-73
2021/05/10 03:58:42;;;;;;;23.07;6.58;;;;;;;7.74;67.64;97964.55;1890248;76;22316;-73
2021/05/10 04:01:19;;;;;;;11.12;4.80;;;;;;;7.76;67.82;97973.18;1887905;76;22849;-72
2021/05/10 04:04:21;;;;;;;11.48;6.65;;;;;;;7.76;67.96;97971.30;1847410;76;22578;-73
2021/05/10 04:10:04;;;;;;;19.02;8.93;;;;;;;7.68;68.87;97965.05;1890311;76;22481;-72
2021/05/10 04:15:21;;;;;;;21.83;10.03;;;;;;;7.57;67.96;97968.77;1874196;76;27369;-73
2021/05/10 04:17:57;;;;;;;13.85;7.12;;;;;;;7.84;68.29;97961.89;1822943;76;22301;-72
2021/05/10 04:20:34;;;;;;;15.30;8.73;;;;;;;7.78;67.47;97962.96;1868810;76;27583;-73
2021/05/10 04:23:10;;;;;;;10.43;6.30;;;;;;;7.85;67.62;97961.62;1852762;77;22664;-73
2021/05/10 04:25:48;;;;;;;14.10;7.80;;;;;;;7.76;68.90;97961.85;1868723;76;27606;-73
2021/05/10 04:28:24;;;;;;;17.65;8.43;;;;;;;7.98;67.87;97971.13;1852466;77;22285;-72
2021/05/10 04:31:01;;;;;;;11.30;7.60;;;;;;;7.97;67.93;97968.16;1868657;76;27586;-73
2021/05/10 04:33:38;;;;;;;11.55;7.15;;;;;;;8.14;67.58;97951.77;1812457;77;22376;-72
2021/05/10 04:36:13;;;;;;;16.40;7.45;;;;;;;7.98;68.37;97951.44;1889348;76;22417;-72
2021/05/10 04:38:48;;;;;;;18.87;8.85;;;;;;;8.10;67.74;97958.21;1848244;76;22267;-72
2021/05/10 04:41:24;;;;;;;18.20;10.32;;;;;;;8.29;67.50;97957.21;1868638;76;27567;-72
2021/05/10 04:43:59;;;;;;;11.70;8.55;;;;;;;8.66;67.17;97961.08;1890238;76;22160;-72
2021/05/10 04:46:36;;;;;;;16.00;8.20;;;;;;;8.77;67.01;97960.55;1841332;76;22696;-73
2021/05/10 04:49:12;;;;;;;13.20;8.98;;;;;;;8.83;67.10;97956.77;1868668;76;27616;-73
2021/05/10 04:51:48;;;;;;;7.97;6.47;;;;;;;9.22;66.13;97963.77;1826268;77;27825;-73
2021/05/10 04:54:25;;;;;;;21.02;14.75;;;;;;;9.53;66.07;97954.27;1874117;76;27719;-73
2021/05/10 04:57:02;;;;;;;18.20;10.65;;;;;;;9.77;66.15;97953.13;1835903;76;22384;-73
2021/05/10 04:59:38;;;;;;;19.05;13.08;;;;;;;9.90;66.03;97947.91;1890181;75;22529;-72
2021/05/10 05:02:16;;;;;;;19.55;12.23;;;;;;;10.10;65.46;97951.64;1852574;77;22328;-73
2021/05/10 05:04:52;;;;;;;24.07;13.60;;;;;;;10.33;65.00;97958.31;1868645;76;37892;-73
2021/05/10 05:07:27;;;;;;;15.23;11.05;;;;;;;10.73;63.35;97957.25;1871734;76;22303;-73
2021/05/10 05:10:03;;;;;;;23.87;16.37;;;;;;;10.90;63.41;97954.95;1852425;77;22608;-73
2021/05/10 05:12:38;;;;;;;21.50;11.95;;;;;;;11.12;63.18;97963.20;1836628;77;27765;-73
2021/05/10 05:15:16;;;;;;;23.80;12.78;;;;;;;11.50;60.84;97956.05;1873907;76;27660;-72
2021/05/10 05:17:52;;;;;;;15.45;10.78;;;;;;;11.78;59.84;97956.55;1824188;76;22718;-73
2021/05/10 05:20:30;;;;;;;18.52;11.68;;;;;;;11.81;59.95;97945.72;1873965;76;27562;-73
2021/05/10 05:23:25;;;;;;;13.83;9.50;;;;;;;12.12;58.94;97952.38;1862070;76;22527;-73
2021/05/10 05:26:04;;;;;;;16.97;9.10;;;;;;;12.23;59.84;97942.76;1890205;75;22243;-73
2021/05/10 05:28:38;;;;;;;13.30;7.62;;;;;;;12.47;59.90;97943.48;1848055;76;22453;-72
2021/05/10 05:31:15;;;;;;;14.63;7.27;;;;;;;12.71;59.67;97944.22;1867526;76;27726;-73
2021/05/10 05:33:49;;;;;;;12.80;6.47;;;;;;;13.18;59.81;97944.30;1848093;76;22327;-73
2021/05/10 05:36:26;;;;;;;42.45;25.77;;;;;;;13.39;59.74;97935.25;1880892;76;21967;-73
2021/05/10 05:39:06;;;;;;;50.75;33.55;;;;;;;13.65;59.31;97930.95;1868666;76;27593;-73
2021/05/10 05:41:42;;;;;;;27.75;18.92;;;;;;;14.07;56.30;97935.84;1882352;76;22527;-73
2021/05/10 05:44:19;;;;;;;49.03;32.00;;;;;;;14.22;56.15;97932.00;1847493;76;22743;-73
2021/05/10 05:47:01;;;;;;;37.63;31.10;;;;;;;14.43;56.21;97922.80;1836951;76;23075;-73
2021/05/10 05:49:36;;;;;;;28.45;23.00;;;;;;;14.63;55.65;97921.03;1847589;76;22367;-73
2021/05/10 05:52:13;;;;;;;28.42;19.98;;;;;;;14.87;55.58;97924.83;1833163;76;22167;-73
2021/05/10 05:54:51;;;;;;;12.73;11.15;;;;;;;15.14;54.30;97918.44;1874023;76;37875;-73
2021/05/10 05:57:28;;;;;;;11.63;7.12;;;;;;;15.57;50.96;97914.57;1830307;76;22351;-73
2021/05/10 06:00:06;;;;;;;13.07;6.07;;;;;;;15.80;50.60;97913.95;1871281;76;27592;-73
2021/05/10 06:02:42;;;;;;;9.35;5.15;;;;;;;16.21;45.81;97917.69;1828673;76;22438;-73
2021/05/10 06:05:19;;;;;;;6.17;3.80;;;;;;;16.45;43.87;97906.88;1891615;75;22088;-73
2021/05/10 06:07:56;;;;;;;11.30;4.10;;;;;;;16.72;43.22;97909.32;1824718;76;22375;-73
2021/05/10 06:10:32;;;;;;;6.33;3.40;;;;;;;17.00;43.62;97909.77;1870513;76;27593;-73
2021/05/10 06:13:10;;;;;;;8.85;6.92;;;;;;;17.36;39.20;97912.14;1821516;76;22009;-73
2021/05/10 06:15:45;;;;;;;5.30;4.30;;;;;;;17.57;41.83;97912.80;1778942;79;21910;-73
2021/05/10 06:18:22;;;;;;;4.37;3.20;;;;;;;17.78;41.35;97913.73;1855378;77;22118;-72
2021/05/10 06:21:02;;;;;;;2.72;2.00;;;;;;;17.97;41.31;97904.52;1893178;76;23062;-73
2021/05/10 06:23:39;;;;;;;5.47;2.72;;;;;;;18.19;39.84;97900.66;1848761;77;22398;-73
2021/05/10 06:26:16;;;;;;;7.93;2.87;;;;;;;18.33;38.37;97905.34;1875829;76;27579;-72
2021/05/10 06:28:51;;;;;;;5.65;2.22;;;;;;;18.63;36.58;97912.16;1850843;76;21900;-73
2021/05/10 06:31:27;;;;;;;7.10;3.70;;;;;;;18.85;37.68;97902.80;1867047;76;27719;-72
2021/05/10 06:34:05;;;;;;;8.77;3.30;;;;;;;19.22;34.94;97904.30;1871048;76;27568;-73
2021/05/10 06:36:41;;;;;;;4.90;3.52;;;;;;;19.48;34.19;97895.20;1842208;76;22547;-73
2021/05/10 06:39:18;;;;;;;7.90;2.90;;;;;;;19.56;34.48;97889.37;1875643;76;27589;-75
2021/05/10 06:41:52;;;;;;;12.60;3.17;;;;;;;19.84;32.94;97892.31;1879933;76;22081;-73
2021/05/10 06:44:29;;;;;;;3.77;1.90;;;;;;;19.94;33.91;97885.78;1847359;76;22089;-73
2021/05/10 06:47:07;;;;;;;8.10;2.90;;;;;;;20.10;33.12;97889.22;1834300;76;22130;-73
2021/05/10 06:49:43;;;;;;;9.63;2.27;;;;;;;20.26;34.61;97882.67;1868734;76;27704;-73
2021/05/10 06:52:19;;;;;;;4.43;2.23;;;;;;;20.51;31.64;97879.33;1852263;76;27670;-73
2021/05/10 06:54:56;;;;;;;5.22;1.95;;;;;;;20.83;31.29;97874.72;1873968;76;27554;-73
2021/05/10 06:57:32;;;;;;;6.27;1.63;;;;;;;21.51;28.87;97874.41;1849258;76;27702;-73
2021/05/10 07:00:10;;;;;;;4.53;2.20;;;;;;;21.91;28.26;97865.38;1868701;76;27528;-73
2021/05/10 07:02:46;;;;;;;8.43;2.33;;;;;;;22.18;28.58;97865.04;1825526;76;22131;-73
2021/05/10 07:05:22;;;;;;;6.33;2.93;;;;;;;22.13;28.84;97868.09;1836631;77;38529;-73
2021/05/10 07:08:13;;;;;;;4.10;2.07;;;;;;;22.51;28.29;97874.84;1842970;76;27646;-73
2021/05/10 07:10:52;;;;;;;3.70;1.70;;;;;;;22.68;27.67;97875.00;1847648;76;22830;-73
2021/05/10 07:13:28;;;;;;;6.58;2.00;;;;;;;22.57;28.94;97872.60;1842515;75;22606;-73
2021/05/10 07:16:07;;;;;;;3.35;1.70;;;;;;;22.83;27.45;97867.81;1852396;77;22364;-73
2021/05/10 07:18:43;;;;;;;3.67;1.87;;;;;;;23.49;26.31;97865.32;1812894;79;22744;-73
2021/05/10 07:21:19;;;;;;;6.23;2.00;;;;;;;24.06;25.22;97862.95;1832959;77;27845;-73
2021/05/10 07:23:56;;;;;;;7.00;1.90;;;;;;;24.92;23.99;97865.52;1836603;77;27729;-73
2021/05/10 07:26:32;;;;;;;6.85;2.15;;;;;;;25.74;22.00;97855.33;1884655;76;21838;-73
2021/05/10 07:29:10;;;;;;;2.40;1.40;;;;;;;25.88;25.16;97849.88;1852388;77;22139;-73
2021/05/10 07:31:46;;;;;;;5.50;2.20;;;;;;;26.58;22.81;97854.34;1860144;76;27645;-73
2021/05/10 07:34:23;;;;;;;6.13;1.93;;;;;;;27.19;24.76;97848.44;1868758;76;27722;-74
2021/05/10 07:36:58;;;;;;;7.37;2.20;;;;;;;27.89;21.95;97850.31;1847760;75;27703;-74
2021/05/10 07:39:35;;;;;;;9.85;4.70;;;;;;;28.55;19.98;97855.42;1847454;76;22085;-74
2021/05/10 07:42:11;;;;;;;9.47;3.67;;;;;;;28.61;21.78;97851.79;1859447;76;27720;-74
2021/05/10 07:44:47;;;;;;;11.60;7.17;;;;;;;29.51;19.12;97852.80;1874042;76;27647;-74
2021/05/10 07:47:24;;;;;;;3.20;1.25;;;;;;;29.96;19.65;97852.23;1872376;76;22334;-74
2021/05/10 07:50:01;;;;;;;13.03;7.70;;;;;;;29.78;18.18;97851.79;1847301;76;22366;-74
2021/05/10 07:52:37;;;;;;;7.10;3.93;;;;;;;29.87;19.14;97854.11;1853181;76;28225;-74
2021/05/10 07:55:14;;;;;;;4.30;2.80;;;;;;;30.66;17.97;97849.98;1868744;75;27549;-73
2021/05/10 07:57:51;;;;;;;4.87;1.27;;;;;;;31.17;16.01;97850.33;1845083;75;28134;-74
2021/05/10 08:00:30;;;;;;;6.03;3.65;;;;;;;31.91;14.07;97853.88;1847595;76;22265;-74
2021/05/10 08:05:45;;;;;;;9.05;3.75;;;;;;;30.99;17.45;97852.57;1847576;75;22559;-74
2021/05/10 08:08:23;;;;;;;5.50;1.43;;;;;;;31.54;17.87;97849.25;1836723;77;27682;-74
2021/05/10 08:11:03;;;;;;;3.40;1.42;;;;;;;32.62;14.00;97853.21;1890181;76;22004;-74
2021/05/10 08:13:40;;;;;;;2.25;1.15;;;;;;;32.52;14.02;97858.60;1847626;76;22571;-74
2021/05/10 08:16:16;;;;;;;1.87;1.37;;;;;;;31.83;14.50;97856.61;1867141;76;27659;-74
2021/05/10 08:18:56;;;;;;;2.55;1.65;;;;;;;32.08;13.71;97850.59;1874114;76;28673;-74
2021/05/10 08:21:32;;;;;;;7.03;1.27;;;;;;;33.22;15.91;97851.19;1884757;76;21816;-74
2021/05/10 08:24:09;;;;;;;2.83;1.35;;;;;;;33.62;14.23;97851.91;1868802;76;28122;-74
2021/05/10 08:26:46;;;;;;;10.00;3.08;;;;;;;34.06;12.44;97845.42;1838946;76;22749;-74
2021/05/10 08:29:22;;;;;;;4.75;2.30;;;;;;;33.10;13.89;97849.23;1868809;76;27592;-74
2021/05/10 08:31:59;;;;;;;7.00;2.47;;;;;;;34.13;12.53;97844.63;1862401;76;27623;-74
2021/05/10 08:34:37;;;;;;;5.33;3.98;;;;;;;35.43;11.92;97847.62;1890172;76;21993;-74
2021/05/10 08:37:13;;;;;;;4.40;1.90;;;;;;;35.21;12.64;97846.66;1853794;76;37453;-74
2021/05/10 08:39:48;;;;;;;1.98;1.32;;;;;;;35.18;12.06;97837.72;1848112;76;22206;-74
2021/05/10 08:42:24;;;;;;;2.72;1.47;;;;;;;35.60;10.82;97844.86;1851177;76;38463;-74
2021/05/10 08:45:01;;;;;;;2.37;1.45;;;;;;;36.00;10.07;97841.58;1890211;76;21822;-74
2021/05/10 08:47:39;;;;;;;3.92;3.10;;;;;;;34.12;12.34;97839.45;1853164;76;38412;-75
2021/05/10 08:50:17;;;;;;;4.22;3.62;;;;;;;35.41;12.06;97833.20;1852392;77;22647;-75
2021/05/10 08:52:53;;;;;;;5.85;4.42;;;;;;;35.23;13.38;97833.73;1865266;76;21900;-75
2021/05/10 08:55:37;;;;;;;1.80;1.20;;;;;;;35.81;13.08;97833.52;1890103;76;22573;-75
2021/05/10 08:58:13;;;;;;;2.35;1.70;;;;;;;36.36;10.88;97834.11;1855301;76;21943;-74
2021/05/10 09:00:56;;;;;;;5.25;3.00;;;;;;;36.23;11.34;97837.55;1890167;76;22097;-74
2021/05/10 09:03:44;;;;;;;7.05;4.55;;;;;;;36.38;12.29;97833.02;1844472;76;22740;-75
2021/05/10 09:06:31;;;;;;;3.65;2.90;;;;;;;36.40;11.53;97826.29;1844703;76;22348;-74
2021/05/10 09:09:08;;;;;;;2.17;0.97;;;;;;;36.71;11.72;97832.02;1832080;76;27620;-74
2021/05/10 09:11:55;;;;;;;3.83;1.20;;;;;;;37.92;9.50;97823.70;1888424;76;22593;-74
2021/05/10 09:14:36;;;;;;;2.27;0.90;;;;;;;37.10;10.17;97829.80;1847477;76;23143;-74
2021/05/10 09:17:13;;;;;;;1.42;0.68;;;;;;;36.95;10.79;97825.94;1833223;76;22310;-75
2021/05/10 09:19:57;;;;;;;2.80;1.10;;;;;;;38.01;9.66;97817.28;1848052;76;22267;-75
2021/05/10 09:22:50;;;;;;;1.22;0.78;;;;;;;37.83;9.23;97828.72;1828014;76;22018;-74
2021/05/10 09:25:35;;;;;;;2.42;1.77;;;;;;;37.42;8.79;97828.55;1847456;76;23153;-75
2021/05/10 09:28:22;;;;;;;3.17;1.70;;;;;;;37.90;9.18;97827.64;1819734;76;22191;-74
2021/05/10 09:31:03;;;;;;;8.65;3.25;;;;;;;38.14;9.39;97826.42;1890198;76;22633;-74
2021/05/10 09:33:46;;;;;;;2.90;1.22;;;;;;;38.36;9.80;97828.50;1852371;77;22520;-74
2021/05/10 09:36:40;;;;;;;1.52;1.12;;;;;;;39.02;10.03;97830.04;1844266;76;22767;-74
2021/05/10 09:39:33;;;;;;;1.42;0.70;;;;;;;39.38;9.69;97826.33;1847211;76;22312;-74
2021/05/10 09:42:10;;;;;;;1.85;1.17;;;;;;;38.93;8.95;97823.13;1833671;76;22422;-74
2021/05/10 09:44:45;;;;;;;4.17;2.17;;;;;;;39.56;7.92;97822.63;1848133;76;22199;-74
2021/05/10 09:47:22;;;;;;;3.95;1.10;;;;;;;39.25;8.96;97816.62;1831198;76;22441;-74
2021/05/10 09:49:58;;;;;;;2.85;1.27;;;;;;;39.54;8.88;97813.82;1868806;76;27509;-74
2021/05/10 09:52:33;;;;;;;2.95;1.02;;;;;;;39.92;7.88;97818.86;1829113;76;23119;-74
2021/05/10 09:55:10;;;;;;;3.08;0.90;;;;;;;39.11;8.17;97819.47;1847737;76;22203;-74
2021/05/10 09:57:57;;;;;;;3.52;0.90;;;;;;;39.66;8.27;97821.37;1867485;76;21944;-74
2021/05/10 10:00:33;;;;;;;1.80;0.70;;;;;;;39.89;8.56;97824.84;1852434;77;22214;-74
2021/05/10 10:03:30;;;;;;;5.75;1.40;;;;;;;39.65;7.69;97817.72;1861852;76;22219;-75
2021/05/10 10:06:08;;;;;;;1.98;0.80;;;;;;;40.44;7.43;97820.25;1890269;76;22806;-74
2021/05/10 10:08:47;;;;;;;2.40;0.88;;;;;;;40.61;7.74;97820.58;1847690;76;21736;-75
2021/05/10 10:11:24;;;;;;;4.17;1.70;;;;;;;40.90;7.40;97825.52;1848921;77;22286;-75
2021/05/10 10:14:01;;;;;;;2.30;1.40;;;;;;;40.24;7.28;97820.84;1848149;76;22453;-74
2021/05/10 10:16:35;;;;;;;2.77;1.00;;;;;;;40.30;7.33;97818.12;1852371;77;22028;-74
2021/05/10 10:19:13;;;;;;;5.03;1.50;;;;;;;39.72;8.00;97815.17;1847360;76;21961;-74
2021/05/10 10:21:49;;;;;;;3.30;1.22;;;;;;;39.67;7.74;97815.22;1859439;76;28162;-74
2021/05/10 10:24:24;;;;;;;2.55;1.00;;;;;;;40.45;7.39;97818.98;1848100;76;22629;-74
2021/05/10 10:27:00;;;;;;;3.98;1.00;;;;;;;40.39;7.86;97814.42;1839405;77;22828;-74
2021/05/10 10:29:37;;;;;;;1.67;1.00;;;;;;;41.54;7.17;97821.98;1847499;76;21974;-74
2021/05/10 10:32:19;;;;;;;1.60;0.88;;;;;;;41.86;6.37;97817.92;1853670;76;27660;-75
2021/05/10 10:34:55;;;;;;;2.58;1.32;;;;;;;42.14;5.93;97819.77;1890229;76;22140;-74
2021/05/10 10:37:30;;;;;;;3.70;1.00;;;;;;;41.32;7.09;97813.09;1829649;76;22800;-75
2021/05/10 10:40:20;;;;;;;1.92;0.80;;;;;;;41.61;6.83;97810.17;1847490;76;22001;-76
2021/05/10 10:43:23;;;;;;;2.12;1.10;;;;;;;41.37;6.84;97808.92;1852387;77;22283;-74
2021/05/10 10:46:23;;;;;;;0.75;0.60;;;;;;;41.04;7.33;97809.12;1847655;76;22212;-74
2021/05/10 10:49:02;;;;;;;2.92;0.95;;;;;;;41.70;6.61;97805.00;1848156;76;22888;-75
2021/05/10 10:51:52;;;;;;;2.12;0.90;;;;;;;41.91;6.71;97812.32;1840778;76;22600;-74
2021/05/10 10:54:29;;;;;;;1.95;0.60;;;;;;;41.12;7.16;97805.25;1847650;76;22410;-74
2021/05/10 10:57:07;;;;;;;9.45;2.90;;;;;;;41.75;6.62;97800.70;1834253;76;22331;-74
2021/05/10 10:59:49;;;;;;;2.45;1.40;;;;;;;41.76;6.72;97803.70;1868763;76;27629;-74
2021/05/10 11:02:27;;;;;;;4.45;1.10;;;;;;;42.35;6.34;97804.23;1830450;76;21958;-74
2021/05/10 11:05:14;;;;;;;1.20;0.90;;;;;;;42.06;6.64;97808.00;1890222;76;22467;-74
2021/05/10 11:08:06;;;;;;;2.87;1.00;;;;;;;43.05;6.44;97820.27;1845409;76;27654;-74
2021/05/10 11:10:54;;;;;;;4.50;0.80;;;;;;;43.76;5.68;97809.22;1890211;76;22344;-74
2021/05/10 11:13:43;;;;;;;2.80;1.60;;;;;;;42.88;5.87;97800.15;1844582;76;22216;-74
2021/05/10 11:16:45;;;;;;;1.65;1.40;;;;;;;42.97;5.79;97809.19;1887913;76;22268;-74
2021/05/10 11:19:38;;;;;;;5.50;2.42;;;;;;;42.30;6.42;97802.73;1890249;75;22214;-74
2021/05/10 11:22:35;;;;;;;9.85;1.90;;;;;;;42.66;6.55;97804.22;1875150;76;22137;-74
2021/05/10 11:25:39;;;;;;;8.48;2.22;;;;;;;42.74;6.55;97804.69;1852423;77;22617;-74
2021/05/10 11:28:30;;;;;;;8.93;1.97;;;;;;;42.97;5.39;97797.80;1803557;76;27804;-74
2021/05/10 11:31:12;;;;;;;8.80;1.42;;;;;;;42.58;6.40;97793.91;1847645;76;22069;-74
2021/05/10 11:33:57;;;;;;;1.95;0.90;;;;;;;42.49;6.50;97784.86;1847701;76;22051;-74
2021/05/10 11:36:39;;;;;;;6.47;1.75;;;;;;;42.92;6.56;97782.20;1842301;76;22706;-74
2021/05/10 11:39:25;;;;;;;5.90;1.10;;;;;;;43.64;5.87;97782.00;1847713;76;22357;-74
2021/05/10 11:42:09;;;;;;;5.33;1.17;;;;;;;43.00;5.96;97790.46;1856434;76;27629;-74
2021/05/10 11:44:45;;;;;;;7.45;1.07;;;;;;;43.48;5.33;97788.38;1890221;76;22273;-74
2021/05/10 11:47:21;;;;;;;2.52;0.80;;;;;;;42.36;5.60;97788.71;1831203;76;22687;-74
2021/05/10 11:50:03;;;;;;;5.00;0.90;;;;;;;41.88;6.25;97785.52;1868759;76;28134;-74
2021/05/10 11:52:39;;;;;;;6.42;0.82;;;;;;;42.94;5.34;97786.77;1826979;76;22185;-74
2021/05/10 11:55:15;;;;;;;5.47;1.10;;;;;;;41.32;5.75;97778.98;1848107;76;22049;-74
2021/05/10 11:57:57;;;;;;;2.33;0.90;;;;;;;40.09;6.71;97774.64;1824296;76;22450;-74
2021/05/10 12:00:30;;;;;;;5.87;1.20;;;;;;;40.01;7.11;97780.53;1890185;76;21873;-74
2021/05/10 12:03:07;;;;;;;2.85;0.85;;;;;;;39.98;7.07;97771.52;1852380;77;22433;-74
2021/05/10 12:05:43;;;;;;;2.17;0.80;;;;;;;40.23;6.73;97774.52;1836606;77;27765;-74
2021/05/10 12:08:21;;;;;;;5.58;1.30;;;;;;;38.90;7.30;97766.05;1838079;76;28002;-74
2021/05/10 12:10:56;;;;;;;2.72;1.00;;;;;;;38.70;7.54;97764.35;1874081;76;27523;-74
2021/05/10 12:13:32;;;;;;;4.83;1.30;;;;;;;39.20;7.41;97767.05;1830869;76;27680;-74
2021/05/10 12:16:09;;;;;;;5.70;1.00;;;;;;;39.91;7.05;97771.28;1868759;76;27533;-74
2021/05/10 12:18:56;;;;;;;5.47;0.85;;;;;;;40.07;6.75;97768.64;1890191;76;22298;-74
2021/05/10 12:21:32;;;;;;;6.85;1.05;;;;;;;37.85;7.96;97761.02;1842305;76;22194;-74
2021/05/10 12:24:09;;;;;;;7.80;1.20;;;;;;;37.88;8.25;97775.03;1868763;76;27577;-74
2021/05/10 12:26:47;;;;;;;44.58;3.12;;;;;;;37.70;8.34;97761.63;1839410;76;22176;-74
2021/05/10 12:29:24;;;;;;;3.55;1.10;;;;;;;37.68;8.85;97758.45;1852418;77;22844;-74
2021/05/10 12:32:00;;;;;;;3.45;0.78;;;;;;;37.98;8.67;97766.70;1823615;77;27774;-74
2021/05/10 12:34:37;;;;;;;2.92;1.45;;;;;;;38.20;8.50;97755.86;1868788;76;27641;-74
2021/05/10 12:37:11;;;;;;;1.85;0.95;;;;;;;36.81;9.06;97761.52;1833988;76;21871;-74